sensor_id;sensor_type;location;lat;lon;timestamp;P1;durP1;ratioP1;P2;durP2;ratioP2
76964;SDS011;65903;51.452;7.198;2024-01-30T00:00:40;9.10;;;6.35;;
76964;SDS011;65903;51.452;7.198;2024-01-30T00:01:40;7.65;;;6.15;;
76964;SDS011;65903;51.452;7.198;2024-01-30T00:02:42;7.97;;;6.15;;
76964;SDS011;65903;51.452;7.198;2024-01-30T00:03:43;10.65;;;6.72;;
76964;SDS011;65903;51.452;7.198;2024-01-30T00:04:45;9.55;;;6.22;;
76964;SDS011;65903;51.452;7.198;2024-01-30T00:05:46;8.93;;;5.72;;
76964;SDS011;65903;51.452;7.198;2024-01-30T00:06:46;8.48;;;6.10;;
76964;SDS011;65903;51.452;7.198;2024-01-30T00:07:47;9.65;;;7.07;;
76964;SDS011;65903;51.452;7.198;2024-01-30T00:08:47;8.82;;;6.63;;
76964;SDS011;65903;51.452;7.198;2024-01-30T00:09:49;11.80;;;6.35;;
76964;SDS011;65903;51.452;7.198;2024-01-30T00:10:50;8.93;;;6.20;;
76964;SDS011;65903;51.452;7.198;2024-01-30T00:11:50;10.43;;;6.47;;
76964;SDS011;65903;51.452;7.198;2024-01-30T00:12:51;11.25;;;6.60;;
76964;SDS011;65903;51.452;7.198;2024-01-30T00:13:51;8.45;;;5.63;;
76964;SDS011;65903;51.452;7.198;2024-01-30T00:14:52;8.30;;;6.07;;
76964;SDS011;65903;51.452;7.198;2024-01-30T00:15:53;9.35;;;6.47;;
76964;SDS011;65903;51.452;7.198;2024-01-30T00:16:54;11.90;;;6.57;;
76964;SDS011;65903;51.452;7.198;2024-01-30T00:17:55;10.57;;;6.65;;
76964;SDS011;65903;51.452;7.198;2024-01-30T00:18:57;10.27;;;7.00;;
76964;SDS011;65903;51.452;7.198;2024-01-30T00:19:59;10.32;;;7.40;;
76964;SDS011;65903;51.452;7.198;2024-01-30T00:20:59;10.32;;;6.40;;
76964;SDS011;65903;51.452;7.198;2024-01-30T00:21:59;10.32;;;7.13;;
76964;SDS011;65903;51.452;7.198;2024-01-30T00:23:00;8.52;;;6.55;;
76964;SDS011;65903;51.452;7.198;2024-01-30T00:24:00;9.68;;;6.65;;
76964;SDS011;65903;51.452;7.198;2024-01-30T00:25:01;9.98;;;6.63;;
76964;SDS011;65903;51.452;7.198;2024-01-30T00:26:02;10.88;;;6.90;;
76964;SDS011;65903;51.452;7.198;2024-01-30T00:27:02;8.73;;;6.35;;
76964;SDS011;65903;51.452;7.198;2024-01-30T00:28:03;7.97;;;6.35;;
76964;SDS011;65903;51.452;7.198;2024-01-30T00:29:03;11.50;;;6.70;;
76964;SDS011;65903;51.452;7.198;2024-01-30T00:30:03;8.55;;;6.63;;
76964;SDS011;65903;51.452;7.198;2024-01-30T00:31:06;9.38;;;6.75;;
76964;SDS011;65903;51.452;7.198;2024-01-30T00:32:07;8.75;;;6.20;;
76964;SDS011;65903;51.452;7.198;2024-01-30T00:33:08;11.00;;;6.85;;
76964;SDS011;65903;51.452;7.198;2024-01-30T00:34:08;11.95;;;7.55;;
76964;SDS011;65903;51.452;7.198;2024-01-30T00:35:09;10.82;;;6.88;;
76964;SDS011;65903;51.452;7.198;2024-01-30T00:36:11;9.43;;;6.85;;
76964;SDS011;65903;51.452;7.198;2024-01-30T00:37:11;9.90;;;6.95;;
76964;SDS011;65903;51.452;7.198;2024-01-30T00:38:12;9.88;;;6.53;;
76964;SDS011;65903;51.452;7.198;2024-01-30T00:39:12;13.10;;;7.30;;
76964;SDS011;65903;51.452;7.198;2024-01-30T00:40:12;10.02;;;7.18;;
76964;SDS011;65903;51.452;7.198;2024-01-30T00:41:17;8.88;;;6.75;;
76964;SDS011;65903;51.452;7.198;2024-01-30T00:42:18;9.75;;;6.55;;
76964;SDS011;65903;51.452;7.198;2024-01-30T00:43:20;11.48;;;6.68;;
76964;SDS011;65903;51.452;7.198;2024-01-30T00:44:21;10.52;;;6.97;;
76964;SDS011;65903;51.452;7.198;2024-01-30T00:45:23;10.90;;;7.20;;
76964;SDS011;65903;51.452;7.198;2024-01-30T00:46:24;9.18;;;7.28;;
76964;SDS011;65903;51.452;7.198;2024-01-30T00:48:27;10.50;;;6.13;;
76964;SDS011;65903;51.452;7.198;2024-01-30T00:49:27;10.48;;;7.10;;
76964;SDS011;65903;51.452;7.198;2024-01-30T00:50:28;10.23;;;6.57;;
76964;SDS011;65903;51.452;7.198;2024-01-30T00:51:28;10.93;;;7.18;;
76964;SDS011;65903;51.452;7.198;2024-01-30T00:52:30;11.07;;;6.72;;
76964;SDS011;65903;51.452;7.198;2024-01-30T00:53:31;9.48;;;6.60;;
76964;SDS011;65903;51.452;7.198;2024-01-30T00:54:31;11.23;;;7.22;;
76964;SDS011;65903;51.452;7.198;2024-01-30T00:55:31;10.35;;;6.57;;
76964;SDS011;65903;51.452;7.198;2024-01-30T00:56:31;11.20;;;7.03;;
76964;SDS011;65903;51.452;7.198;2024-01-30T00:57:32;12.25;;;7.07;;
76964;SDS011;65903;51.452;7.198;2024-01-30T00:58:33;11.10;;;6.85;;
76964;SDS011;65903;51.452;7.198;2024-01-30T00:59:35;10.63;;;7.18;;
76964;SDS011;65903;51.452;7.198;2024-01-30T01:00:36;9.98;;;7.68;;
76964;SDS011;65903;51.452;7.198;2024-01-30T01:01:37;9.70;;;7.40;;
76964;SDS011;65903;51.452;7.198;2024-01-30T01:02:39;10.98;;;6.70;;
76964;SDS011;65903;51.452;7.198;2024-01-30T01:03:40;11.38;;;6.85;;
76964;SDS011;65903;51.452;7.198;2024-01-30T01:04:41;11.73;;;7.88;;
76964;SDS011;65903;51.452;7.198;2024-01-30T01:05:42;11.30;;;7.20;;
76964;SDS011;65903;51.452;7.198;2024-01-30T01:06:43;11.48;;;7.38;;
76964;SDS011;65903;51.452;7.198;2024-01-30T01:07:44;12.10;;;7.22;;
76964;SDS011;65903;51.452;7.198;2024-01-30T01:08:47;11.02;;;7.50;;
76964;SDS011;65903;51.452;7.198;2024-01-30T01:09:49;10.90;;;7.72;;
76964;SDS011;65903;51.452;7.198;2024-01-30T01:10:50;12.00;;;6.80;;
76964;SDS011;65903;51.452;7.198;2024-01-30T01:11:50;10.73;;;7.25;;
76964;SDS011;65903;51.452;7.198;2024-01-30T01:12:51;13.65;;;7.35;;
76964;SDS011;65903;51.452;7.198;2024-01-30T01:13:52;11.30;;;6.95;;
76964;SDS011;65903;51.452;7.198;2024-01-30T01:14:52;11.45;;;7.47;;
76964;SDS011;65903;51.452;7.198;2024-01-30T01:15:53;10.10;;;7.38;;
76964;SDS011;65903;51.452;7.198;2024-01-30T01:16:53;11.43;;;7.03;;
76964;SDS011;65903;51.452;7.198;2024-01-30T01:17:53;11.18;;;7.57;;
76964;SDS011;65903;51.452;7.198;2024-01-30T01:18:54;10.27;;;7.38;;
76964;SDS011;65903;51.452;7.198;2024-01-30T01:19:55;11.68;;;6.65;;
76964;SDS011;65903;51.452;7.198;2024-01-30T01:20:56;10.95;;;7.53;;
76964;SDS011;65903;51.452;7.198;2024-01-30T01:21:56;10.15;;;6.65;;
76964;SDS011;65903;51.452;7.198;2024-01-30T01:22:57;12.50;;;6.85;;
76964;SDS011;65903;51.452;7.198;2024-01-30T01:23:57;10.73;;;7.47;;
76964;SDS011;65903;51.452;7.198;2024-01-30T01:25:00;12.82;;;8.10;;
76964;SDS011;65903;51.452;7.198;2024-01-30T01:26:02;12.25;;;7.47;;
76964;SDS011;65903;51.452;7.198;2024-01-30T01:27:03;14.07;;;7.78;;
76964;SDS011;65903;51.452;7.198;2024-01-30T01:28:04;10.98;;;7.22;;
76964;SDS011;65903;51.452;7.198;2024-01-30T01:29:06;13.52;;;7.50;;
76964;SDS011;65903;51.452;7.198;2024-01-30T01:30:12;12.02;;;8.07;;
76964;SDS011;65903;51.452;7.198;2024-01-30T01:31:14;10.93;;;7.35;;
76964;SDS011;65903;51.452;7.198;2024-01-30T01:32:15;11.63;;;7.88;;
76964;SDS011;65903;51.452;7.198;2024-01-30T01:33:16;11.35;;;7.03;;
76964;SDS011;65903;51.452;7.198;2024-01-30T01:34:17;12.82;;;7.68;;
76964;SDS011;65903;51.452;7.198;2024-01-30T01:35:17;12.02;;;7.65;;
76964;SDS011;65903;51.452;7.198;2024-01-30T01:36:17;9.90;;;7.40;;
76964;SDS011;65903;51.452;7.198;2024-01-30T01:37:19;12.75;;;7.78;;
76964;SDS011;65903;51.452;7.198;2024-01-30T01:38:21;13.30;;;7.38;;
76964;SDS011;65903;51.452;7.198;2024-01-30T01:39:22;9.93;;;6.68;;
76964;SDS011;65903;51.452;7.198;2024-01-30T01:40:27;10.63;;;7.57;;
76964;SDS011;65903;51.452;7.198;2024-01-30T01:41:30;9.95;;;7.35;;
76964;SDS011;65903;51.452;7.198;2024-01-30T01:42:31;13.05;;;7.65;;
76964;SDS011;65903;51.452;7.198;2024-01-30T01:43:33;10.98;;;7.00;;
76964;SDS011;65903;51.452;7.198;2024-01-30T01:44:33;10.13;;;6.63;;
76964;SDS011;65903;51.452;7.198;2024-01-30T01:45:35;11.15;;;7.30;;
76964;SDS011;65903;51.452;7.198;2024-01-30T01:46:35;12.10;;;6.88;;
76964;SDS011;65903;51.452;7.198;2024-01-30T01:47:37;11.73;;;7.13;;
76964;SDS011;65903;51.452;7.198;2024-01-30T01:48:38;10.63;;;7.15;;
76964;SDS011;65903;51.452;7.198;2024-01-30T01:49:40;12.63;;;7.72;;
76964;SDS011;65903;51.452;7.198;2024-01-30T01:50:44;12.20;;;7.18;;
76964;SDS011;65903;51.452;7.198;2024-01-30T01:51:45;11.38;;;7.50;;
76964;SDS011;65903;51.452;7.198;2024-01-30T01:52:47;11.82;;;7.78;;
76964;SDS011;65903;51.452;7.198;2024-01-30T01:53:49;10.20;;;8.15;;
76964;SDS011;65903;51.452;7.198;2024-01-30T01:54:49;11.93;;;7.28;;
76964;SDS011;65903;51.452;7.198;2024-01-30T01:55:50;11.55;;;7.45;;
76964;SDS011;65903;51.452;7.198;2024-01-30T01:56:53;9.48;;;6.93;;
76964;SDS011;65903;51.452;7.198;2024-01-30T01:57:54;9.60;;;6.90;;
76964;SDS011;65903;51.452;7.198;2024-01-30T01:58:55;10.07;;;7.22;;
76964;SDS011;65903;51.452;7.198;2024-01-30T01:59:55;11.35;;;7.35;;
76964;SDS011;65903;51.452;7.198;2024-01-30T02:00:56;9.77;;;6.65;;
76964;SDS011;65903;51.452;7.198;2024-01-30T02:01:57;10.63;;;7.05;;
76964;SDS011;65903;51.452;7.198;2024-01-30T02:03:01;10.57;;;6.95;;
76964;SDS011;65903;51.452;7.198;2024-01-30T02:04:02;11.32;;;8.35;;
76964;SDS011;65903;51.452;7.198;2024-01-30T02:05:02;10.10;;;7.43;;
76964;SDS011;65903;51.452;7.198;2024-01-30T02:06:04;11.07;;;7.60;;
76964;SDS011;65903;51.452;7.198;2024-01-30T02:07:05;11.68;;;6.70;;
76964;SDS011;65903;51.452;7.198;2024-01-30T02:08:06;11.07;;;7.63;;
76964;SDS011;65903;51.452;7.198;2024-01-30T02:09:07;11.80;;;7.80;;
76964;SDS011;65903;51.452;7.198;2024-01-30T02:10:09;10.43;;;7.18;;
76964;SDS011;65903;51.452;7.198;2024-01-30T02:11:10;13.02;;;7.57;;
76964;SDS011;65903;51.452;7.198;2024-01-30T02:12:11;10.15;;;7.32;;
76964;SDS011;65903;51.452;7.198;2024-01-30T02:13:12;11.07;;;7.43;;
76964;SDS011;65903;51.452;7.198;2024-01-30T02:14:12;9.85;;;7.47;;
76964;SDS011;65903;51.452;7.198;2024-01-30T02:15:15;11.18;;;8.20;;
76964;SDS011;65903;51.452;7.198;2024-01-30T02:16:16;11.07;;;7.13;;
76964;SDS011;65903;51.452;7.198;2024-01-30T02:17:18;11.68;;;8.23;;
76964;SDS011;65903;51.452;7.198;2024-01-30T02:18:19;10.02;;;6.65;;
76964;SDS011;65903;51.452;7.198;2024-01-30T02:19:20;13.60;;;8.80;;
76964;SDS011;65903;51.452;7.198;2024-01-30T02:20:21;10.65;;;7.97;;
76964;SDS011;65903;51.452;7.198;2024-01-30T02:21:22;12.95;;;7.43;;
76964;SDS011;65903;51.452;7.198;2024-01-30T02:22:22;12.35;;;7.38;;
76964;SDS011;65903;51.452;7.198;2024-01-30T02:23:23;12.25;;;8.35;;
76964;SDS011;65903;51.452;7.198;2024-01-30T02:24:25;12.73;;;7.43;;
76964;SDS011;65903;51.452;7.198;2024-01-30T02:25:39;11.35;;;7.32;;
76964;SDS011;65903;51.452;7.198;2024-01-30T02:26:44;14.73;;;7.57;;
76964;SDS011;65903;51.452;7.198;2024-01-30T02:27:45;11.52;;;7.57;;
76964;SDS011;65903;51.452;7.198;2024-01-30T02:28:45;11.18;;;8.52;;
76964;SDS011;65903;51.452;7.198;2024-01-30T02:29:45;11.07;;;7.38;;
76964;SDS011;65903;51.452;7.198;2024-01-30T02:30:47;9.65;;;7.20;;
76964;SDS011;65903;51.452;7.198;2024-01-30T02:31:48;10.48;;;7.03;;
76964;SDS011;65903;51.452;7.198;2024-01-30T02:32:48;11.60;;;7.55;;
76964;SDS011;65903;51.452;7.198;2024-01-30T02:33:48;11.80;;;7.70;;
76964;SDS011;65903;51.452;7.198;2024-01-30T02:34:49;10.57;;;7.57;;
76964;SDS011;65903;51.452;7.198;2024-01-30T02:35:49;11.70;;;6.97;;
76964;SDS011;65903;51.452;7.198;2024-01-30T02:36:50;10.93;;;7.13;;
76964;SDS011;65903;51.452;7.198;2024-01-30T02:37:51;11.68;;;7.70;;
76964;SDS011;65903;51.452;7.198;2024-01-30T02:38:51;12.80;;;7.70;;
76964;SDS011;65903;51.452;7.198;2024-01-30T02:39:52;10.20;;;6.78;;
76964;SDS011;65903;51.452;7.198;2024-01-30T02:40:53;14.88;;;7.75;;
76964;SDS011;65903;51.452;7.198;2024-01-30T02:41:53;9.07;;;6.82;;
76964;SDS011;65903;51.452;7.198;2024-01-30T02:42:55;11.40;;;7.50;;
76964;SDS011;65903;51.452;7.198;2024-01-30T02:43:56;11.30;;;7.55;;
76964;SDS011;65903;51.452;7.198;2024-01-30T02:44:56;10.82;;;6.68;;
76964;SDS011;65903;51.452;7.198;2024-01-30T02:45:57;10.95;;;6.80;;
76964;SDS011;65903;51.452;7.198;2024-01-30T02:47:00;12.23;;;7.15;;
76964;SDS011;65903;51.452;7.198;2024-01-30T02:48:00;10.60;;;7.13;;
76964;SDS011;65903;51.452;7.198;2024-01-30T02:49:01;12.95;;;7.78;;
76964;SDS011;65903;51.452;7.198;2024-01-30T02:50:02;10.93;;;7.90;;
76964;SDS011;65903;51.452;7.198;2024-01-30T02:51:03;10.18;;;7.00;;
76964;SDS011;65903;51.452;7.198;2024-01-30T02:52:03;14.48;;;7.60;;
76964;SDS011;65903;51.452;7.198;2024-01-30T02:53:04;13.23;;;7.47;;
76964;SDS011;65903;51.452;7.198;2024-01-30T02:54:04;10.20;;;7.00;;
76964;SDS011;65903;51.452;7.198;2024-01-30T02:55:05;11.10;;;7.10;;
76964;SDS011;65903;51.452;7.198;2024-01-30T02:56:06;12.27;;;7.03;;
76964;SDS011;65903;51.452;7.198;2024-01-30T02:57:10;10.70;;;7.05;;
76964;SDS011;65903;51.452;7.198;2024-01-30T02:58:10;9.80;;;6.85;;
76964;SDS011;65903;51.452;7.198;2024-01-30T02:59:10;10.57;;;8.00;;
76964;SDS011;65903;51.452;7.198;2024-01-30T03:00:11;12.80;;;8.13;;
76964;SDS011;65903;51.452;7.198;2024-01-30T03:01:11;12.85;;;7.28;;
76964;SDS011;65903;51.452;7.198;2024-01-30T03:02:12;12.27;;;7.38;;
76964;SDS011;65903;51.452;7.198;2024-01-30T03:03:13;12.65;;;7.03;;
76964;SDS011;65903;51.452;7.198;2024-01-30T03:04:14;11.25;;;6.85;;
76964;SDS011;65903;51.452;7.198;2024-01-30T03:05:16;12.40;;;7.38;;
76964;SDS011;65903;51.452;7.198;2024-01-30T03:06:16;9.65;;;7.05;;
76964;SDS011;65903;51.452;7.198;2024-01-30T03:07:17;10.50;;;7.25;;
76964;SDS011;65903;51.452;7.198;2024-01-30T03:08:18;13.55;;;6.95;;
76964;SDS011;65903;51.452;7.198;2024-01-30T03:09:18;11.60;;;7.22;;
76964;SDS011;65903;51.452;7.198;2024-01-30T03:10:19;13.70;;;6.80;;
76964;SDS011;65903;51.452;7.198;2024-01-30T03:11:19;10.73;;;7.15;;
76964;SDS011;65903;51.452;7.198;2024-01-30T03:12:19;10.25;;;7.03;;
76964;SDS011;65903;51.452;7.198;2024-01-30T03:13:21;10.98;;;7.40;;
76964;SDS011;65903;51.452;7.198;2024-01-30T03:14:22;11.38;;;6.97;;
76964;SDS011;65903;51.452;7.198;2024-01-30T03:15:22;8.93;;;6.53;;
76964;SDS011;65903;51.452;7.198;2024-01-30T03:16:23;12.98;;;6.97;;
76964;SDS011;65903;51.452;7.198;2024-01-30T03:17:23;9.90;;;7.15;;
76964;SDS011;65903;51.452;7.198;2024-01-30T03:18:24;11.10;;;7.00;;
76964;SDS011;65903;51.452;7.198;2024-01-30T03:19:24;9.45;;;6.40;;
76964;SDS011;65903;51.452;7.198;2024-01-30T03:20:25;11.20;;;6.82;;
76964;SDS011;65903;51.452;7.198;2024-01-30T03:21:25;10.45;;;6.85;;
76964;SDS011;65903;51.452;7.198;2024-01-30T03:22:25;10.25;;;6.57;;
76964;SDS011;65903;51.452;7.198;2024-01-30T03:23:26;12.15;;;6.93;;
76964;SDS011;65903;51.452;7.198;2024-01-30T03:24:27;10.68;;;7.05;;
76964;SDS011;65903;51.452;7.198;2024-01-30T03:25:28;10.13;;;6.40;;
76964;SDS011;65903;51.452;7.198;2024-01-30T03:26:29;9.40;;;6.82;;
76964;SDS011;65903;51.452;7.198;2024-01-30T03:27:29;11.57;;;6.90;;
76964;SDS011;65903;51.452;7.198;2024-01-30T03:28:29;10.02;;;6.57;;
76964;SDS011;65903;51.452;7.198;2024-01-30T03:29:30;11.93;;;6.75;;
76964;SDS011;65903;51.452;7.198;2024-01-30T03:30:31;11.82;;;8.32;;
76964;SDS011;65903;51.452;7.198;2024-01-30T03:31:32;9.27;;;6.78;;
76964;SDS011;65903;51.452;7.198;2024-01-30T03:32:33;11.15;;;6.90;;
76964;SDS011;65903;51.452;7.198;2024-01-30T03:33:33;9.55;;;7.30;;
76964;SDS011;65903;51.452;7.198;2024-01-30T03:34:34;11.50;;;6.72;;
76964;SDS011;65903;51.452;7.198;2024-01-30T03:35:34;9.77;;;6.95;;
76964;SDS011;65903;51.452;7.198;2024-01-30T03:36:34;10.32;;;7.10;;
76964;SDS011;65903;51.452;7.198;2024-01-30T03:37:36;10.77;;;7.32;;
76964;SDS011;65903;51.452;7.198;2024-01-30T03:38:38;11.82;;;6.32;;
76964;SDS011;65903;51.452;7.198;2024-01-30T03:39:38;11.73;;;6.95;;
76964;SDS011;65903;51.452;7.198;2024-01-30T03:40:39;9.40;;;6.22;;
76964;SDS011;65903;51.452;7.198;2024-01-30T03:41:41;9.57;;;6.47;;
76964;SDS011;65903;51.452;7.198;2024-01-30T03:42:42;10.73;;;6.65;;
76964;SDS011;65903;51.452;7.198;2024-01-30T03:43:42;11.30;;;7.00;;
76964;SDS011;65903;51.452;7.198;2024-01-30T03:44:42;12.13;;;7.20;;
76964;SDS011;65903;51.452;7.198;2024-01-30T03:45:43;9.23;;;6.43;;
76964;SDS011;65903;51.452;7.198;2024-01-30T03:46:43;9.80;;;6.68;;
76964;SDS011;65903;51.452;7.198;2024-01-30T03:47:43;13.82;;;7.10;;
76964;SDS011;65903;51.452;7.198;2024-01-30T03:48:45;13.32;;;7.05;;
76964;SDS011;65903;51.452;7.198;2024-01-30T03:49:47;11.75;;;7.93;;
76964;SDS011;65903;51.452;7.198;2024-01-30T03:50:49;13.02;;;6.80;;
76964;SDS011;65903;51.452;7.198;2024-01-30T03:51:49;9.38;;;7.70;;
76964;SDS011;65903;51.452;7.198;2024-01-30T03:52:51;9.43;;;7.13;;
76964;SDS011;65903;51.452;7.198;2024-01-30T03:53:52;12.02;;;6.78;;
76964;SDS011;65903;51.452;7.198;2024-01-30T03:54:53;10.77;;;6.72;;
76964;SDS011;65903;51.452;7.198;2024-01-30T03:55:54;11.95;;;7.13;;
76964;SDS011;65903;51.452;7.198;2024-01-30T03:56:54;13.02;;;6.63;;
76964;SDS011;65903;51.452;7.198;2024-01-30T03:57:55;11.10;;;8.07;;
76964;SDS011;65903;51.452;7.198;2024-01-30T03:58:58;9.45;;;6.35;;
76964;SDS011;65903;51.452;7.198;2024-01-30T04:00:01;12.98;;;6.75;;
76964;SDS011;65903;51.452;7.198;2024-01-30T04:01:01;12.10;;;7.28;;
76964;SDS011;65903;51.452;7.198;2024-01-30T04:02:05;9.07;;;6.70;;
76964;SDS011;65903;51.452;7.198;2024-01-30T04:03:06;8.68;;;6.55;;
76964;SDS011;65903;51.452;7.198;2024-01-30T04:04:07;11.88;;;6.93;;
76964;SDS011;65903;51.452;7.198;2024-01-30T04:05:08;9.63;;;6.85;;
76964;SDS011;65903;51.452;7.198;2024-01-30T04:06:09;9.35;;;6.70;;
76964;SDS011;65903;51.452;7.198;2024-01-30T04:07:10;12.90;;;6.75;;
76964;SDS011;65903;51.452;7.198;2024-01-30T04:08:17;15.07;;;6.75;;
76964;SDS011;65903;51.452;7.198;2024-01-30T04:09:18;9.48;;;6.53;;
76964;SDS011;65903;51.452;7.198;2024-01-30T04:10:19;10.50;;;6.65;;
76964;SDS011;65903;51.452;7.198;2024-01-30T04:11:20;9.90;;;6.38;;
76964;SDS011;65903;51.452;7.198;2024-01-30T04:12:20;11.75;;;6.38;;
76964;SDS011;65903;51.452;7.198;2024-01-30T04:13:22;9.57;;;6.18;;
76964;SDS011;65903;51.452;7.198;2024-01-30T04:14:22;10.43;;;6.68;;
76964;SDS011;65903;51.452;7.198;2024-01-30T04:15:22;10.95;;;6.18;;
76964;SDS011;65903;51.452;7.198;2024-01-30T04:16:23;10.85;;;6.53;;
76964;SDS011;65903;51.452;7.198;2024-01-30T04:17:24;11.23;;;6.68;;
76964;SDS011;65903;51.452;7.198;2024-01-30T04:18:24;10.65;;;6.85;;
76964;SDS011;65903;51.452;7.198;2024-01-30T04:19:24;6.75;;;5.53;;
76964;SDS011;65903;51.452;7.198;2024-01-30T04:20:25;8.02;;;6.88;;
76964;SDS011;65903;51.452;7.198;2024-01-30T04:21:26;9.40;;;6.38;;
76964;SDS011;65903;51.452;7.198;2024-01-30T04:22:27;8.95;;;6.25;;
76964;SDS011;65903;51.452;7.198;2024-01-30T04:23:30;11.48;;;6.80;;
76964;SDS011;65903;51.452;7.198;2024-01-30T04:24:31;9.70;;;6.05;;
76964;SDS011;65903;51.452;7.198;2024-01-30T04:25:31;11.55;;;7.03;;
76964;SDS011;65903;51.452;7.198;2024-01-30T04:26:31;8.40;;;6.32;;
76964;SDS011;65903;51.452;7.198;2024-01-30T04:27:31;7.38;;;6.20;;
76964;SDS011;65903;51.452;7.198;2024-01-30T04:28:32;10.55;;;6.05;;
76964;SDS011;65903;51.452;7.198;2024-01-30T04:29:32;7.25;;;5.63;;
76964;SDS011;65903;51.452;7.198;2024-01-30T04:30:33;9.95;;;6.05;;
76964;SDS011;65903;51.452;7.198;2024-01-30T04:31:35;9.68;;;5.95;;
76964;SDS011;65903;51.452;7.198;2024-01-30T04:32:36;13.07;;;7.63;;
76964;SDS011;65903;51.452;7.198;2024-01-30T04:33:38;9.00;;;5.95;;
76964;SDS011;65903;51.452;7.198;2024-01-30T04:34:38;9.93;;;6.38;;
76964;SDS011;65903;51.452;7.198;2024-01-30T04:35:39;8.07;;;6.25;;
76964;SDS011;65903;51.452;7.198;2024-01-30T04:36:39;8.68;;;5.95;;
76964;SDS011;65903;51.452;7.198;2024-01-30T04:37:39;9.63;;;6.47;;
76964;SDS011;65903;51.452;7.198;2024-01-30T04:38:40;10.48;;;6.35;;
76964;SDS011;65903;51.452;7.198;2024-01-30T04:39:40;8.73;;;6.20;;
76964;SDS011;65903;51.452;7.198;2024-01-30T04:40:41;11.25;;;6.35;;
76964;SDS011;65903;51.452;7.198;2024-01-30T04:41:42;10.18;;;6.18;;
76964;SDS011;65903;51.452;7.198;2024-01-30T04:42:43;9.60;;;6.32;;
76964;SDS011;65903;51.452;7.198;2024-01-30T04:43:46;9.52;;;6.10;;
76964;SDS011;65903;51.452;7.198;2024-01-30T04:44:47;8.88;;;6.32;;
76964;SDS011;65903;51.452;7.198;2024-01-30T04:45:47;12.07;;;6.60;;
76964;SDS011;65903;51.452;7.198;2024-01-30T04:46:47;7.97;;;6.13;;
76964;SDS011;65903;51.452;7.198;2024-01-30T04:47:48;11.23;;;5.93;;
76964;SDS011;65903;51.452;7.198;2024-01-30T04:48:48;8.75;;;5.90;;
76964;SDS011;65903;51.452;7.198;2024-01-30T04:49:48;12.55;;;6.47;;
76964;SDS011;65903;51.452;7.198;2024-01-30T04:50:51;9.27;;;6.07;;
76964;SDS011;65903;51.452;7.198;2024-01-30T04:51:52;10.43;;;6.80;;
76964;SDS011;65903;51.452;7.198;2024-01-30T04:52:52;8.88;;;5.80;;
76964;SDS011;65903;51.452;7.198;2024-01-30T04:53:53;9.90;;;6.63;;
76964;SDS011;65903;51.452;7.198;2024-01-30T04:54:53;10.40;;;5.93;;
76964;SDS011;65903;51.452;7.198;2024-01-30T04:55:54;9.55;;;6.22;;
76964;SDS011;65903;51.452;7.198;2024-01-30T04:56:54;10.25;;;5.80;;
76964;SDS011;65903;51.452;7.198;2024-01-30T04:57:55;10.27;;;6.07;;
76964;SDS011;65903;51.452;7.198;2024-01-30T04:58:55;8.52;;;5.50;;
76964;SDS011;65903;51.452;7.198;2024-01-30T04:59:56;11.70;;;5.75;;
76964;SDS011;65903;51.452;7.198;2024-01-30T05:00:57;8.50;;;5.63;;
76964;SDS011;65903;51.452;7.198;2024-01-30T05:01:58;9.25;;;5.80;;
76964;SDS011;65903;51.452;7.198;2024-01-30T05:03:00;8.77;;;6.35;;
76964;SDS011;65903;51.452;7.198;2024-01-30T05:04:00;10.30;;;5.95;;
76964;SDS011;65903;51.452;7.198;2024-01-30T05:05:01;9.90;;;6.18;;
76964;SDS011;65903;51.452;7.198;2024-01-30T05:06:01;8.00;;;5.43;;
76964;SDS011;65903;51.452;7.198;2024-01-30T05:07:01;7.95;;;5.75;;
76964;SDS011;65903;51.452;7.198;2024-01-30T05:08:03;9.90;;;5.68;;
76964;SDS011;65903;51.452;7.198;2024-01-30T05:09:04;8.43;;;5.60;;
76964;SDS011;65903;51.452;7.198;2024-01-30T05:10:04;8.55;;;5.82;;
76964;SDS011;65903;51.452;7.198;2024-01-30T05:11:05;9.50;;;6.00;;
76964;SDS011;65903;51.452;7.198;2024-01-30T05:12:06;8.77;;;6.10;;
76964;SDS011;65903;51.452;7.198;2024-01-30T05:13:07;9.70;;;5.53;;
76964;SDS011;65903;51.452;7.198;2024-01-30T05:14:09;9.20;;;5.65;;
76964;SDS011;65903;51.452;7.198;2024-01-30T05:15:11;8.38;;;5.57;;
76964;SDS011;65903;51.452;7.198;2024-01-30T05:16:11;8.95;;;5.53;;
76964;SDS011;65903;51.452;7.198;2024-01-30T05:17:12;8.05;;;5.97;;
76964;SDS011;65903;51.452;7.198;2024-01-30T05:18:14;11.35;;;5.72;;
76964;SDS011;65903;51.452;7.198;2024-01-30T05:19:14;9.77;;;5.68;;
76964;SDS011;65903;51.452;7.198;2024-01-30T05:20:15;7.63;;;5.38;;
76964;SDS011;65903;51.452;7.198;2024-01-30T05:21:16;7.53;;;6.05;;
76964;SDS011;65903;51.452;7.198;2024-01-30T05:22:18;10.10;;;5.72;;
76964;SDS011;65903;51.452;7.198;2024-01-30T05:23:18;8.48;;;5.05;;
76964;SDS011;65903;51.452;7.198;2024-01-30T05:24:19;8.55;;;5.20;;
76964;SDS011;65903;51.452;7.198;2024-01-30T05:25:20;10.15;;;6.13;;
76964;SDS011;65903;51.452;7.198;2024-01-30T05:26:20;10.73;;;5.93;;
76964;SDS011;65903;51.452;7.198;2024-01-30T05:27:22;10.27;;;6.57;;
76964;SDS011;65903;51.452;7.198;2024-01-30T05:28:23;7.15;;;5.20;;
76964;SDS011;65903;51.452;7.198;2024-01-30T05:29:23;8.15;;;5.55;;
76964;SDS011;65903;51.452;7.198;2024-01-30T05:30:24;7.60;;;5.53;;
76964;SDS011;65903;51.452;7.198;2024-01-30T05:31:25;10.65;;;5.70;;
76964;SDS011;65903;51.452;7.198;2024-01-30T05:32:27;8.20;;;5.57;;
76964;SDS011;65903;51.452;7.198;2024-01-30T05:33:28;9.50;;;5.65;;
76964;SDS011;65903;51.452;7.198;2024-01-30T05:34:28;8.48;;;5.47;;
76964;SDS011;65903;51.452;7.198;2024-01-30T05:35:30;8.63;;;5.55;;
76964;SDS011;65903;51.452;7.198;2024-01-30T05:36:31;8.07;;;5.40;;
76964;SDS011;65903;51.452;7.198;2024-01-30T05:37:33;9.00;;;5.88;;
76964;SDS011;65903;51.452;7.198;2024-01-30T05:38:38;7.80;;;5.38;;
76964;SDS011;65903;51.452;7.198;2024-01-30T05:39:39;10.30;;;5.25;;
76964;SDS011;65903;51.452;7.198;2024-01-30T05:40:40;9.00;;;5.00;;
76964;SDS011;65903;51.452;7.198;2024-01-30T05:41:40;8.65;;;6.13;;
76964;SDS011;65903;51.452;7.198;2024-01-30T05:42:41;7.40;;;5.25;;
76964;SDS011;65903;51.452;7.198;2024-01-30T05:43:42;8.18;;;5.53;;
76964;SDS011;65903;51.452;7.198;2024-01-30T05:44:45;8.93;;;5.43;;
76964;SDS011;65903;51.452;7.198;2024-01-30T05:45:46;8.20;;;5.53;;
76964;SDS011;65903;51.452;7.198;2024-01-30T05:46:47;9.50;;;5.05;;
76964;SDS011;65903;51.452;7.198;2024-01-30T05:47:47;7.68;;;5.22;;
76964;SDS011;65903;51.452;7.198;2024-01-30T05:48:48;7.60;;;5.45;;
76964;SDS011;65903;51.452;7.198;2024-01-30T05:49:48;9.95;;;4.93;;
76964;SDS011;65903;51.452;7.198;2024-01-30T05:50:48;7.80;;;4.68;;
76964;SDS011;65903;51.452;7.198;2024-01-30T05:51:50;8.25;;;4.68;;
76964;SDS011;65903;51.452;7.198;2024-01-30T05:52:51;6.97;;;5.05;;
76964;SDS011;65903;51.452;7.198;2024-01-30T05:53:53;8.52;;;6.13;;
76964;SDS011;65903;51.452;7.198;2024-01-30T05:54:54;8.68;;;5.05;;
76964;SDS011;65903;51.452;7.198;2024-01-30T05:55:55;7.90;;;5.25;;
76964;SDS011;65903;51.452;7.198;2024-01-30T05:56:57;8.73;;;4.97;;
76964;SDS011;65903;51.452;7.198;2024-01-30T05:57:58;7.88;;;5.22;;
76964;SDS011;65903;51.452;7.198;2024-01-30T05:58:59;6.85;;;4.72;;
76964;SDS011;65903;51.452;7.198;2024-01-30T05:59:59;9.70;;;5.90;;
76964;SDS011;65903;51.452;7.198;2024-01-30T06:01:00;7.75;;;4.72;;
76964;SDS011;65903;51.452;7.198;2024-01-30T06:02:00;9.43;;;5.03;;
76964;SDS011;65903;51.452;7.198;2024-01-30T06:03:00;8.15;;;5.68;;
76964;SDS011;65903;51.452;7.198;2024-01-30T06:04:01;8.02;;;5.60;;
76964;SDS011;65903;51.452;7.198;2024-01-30T06:05:02;9.32;;;5.50;;
76964;SDS011;65903;51.452;7.198;2024-01-30T06:06:03;8.27;;;5.07;;